History Data

Date (GMT-7:00) CPM ACPM uSv/h Latitude Longitude Altitude CO CO2 TVOC HCHO Air Pressure Temperature Humidity Type
2022-05-25 15:47:43 21 18.20 0.105000 42.121764 -79.1864253 0 0 0 0 0 0 0 0 PRO5.61
2022-05-25 15:46:42 23 18.20 0.115000 42.121764 -79.1864253 0 0 0 0 0 0 0 0 PRO5.61
2022-05-25 15:45:41 18 18.20 0.090000 42.121764 -79.1864253 0 0 0 0 0 0 0 0 PRO5.61
2022-05-25 15:44:40 18 18.70 0.090000 42.121764 -79.1864253 0 0 0 0 0 0 0 0 PRO5.61
2022-05-25 15:43:39 9 18.40 0.045000 42.121764 -79.1864253 0 0 0 0 0 0 0 0 PRO5.61
2022-05-25 15:42:38 21 18.70 0.105000 42.121764 -79.1864253 0 0 0 0 0 0 0 0 PRO5.61
2022-05-25 15:41:37 18 19.00 0.090000 42.121764 -79.1864253 0 0 0 0 0 0 0 0 PRO5.61
2022-05-25 15:40:36 14 18.80 0.070000 42.121764 -79.1864253 0 0 0 0 0 0 0 0 PRO5.61
2022-05-25 15:39:35 18 19.60 0.090000 42.121764 -79.1864253 0 0 0 0 0 0 0 0 PRO5.61
2022-05-25 15:38:34 22 18.80 0.110000 42.121764 -79.1864253 0 0 0 0 0 0 0 0 PRO5.61
2022-05-25 15:37:33 23 18.90 0.115000 42.121764 -79.1864253 0 0 0 0 0 0 0 0 PRO5.61
2022-05-25 15:36:32 24 18.20 0.120000 42.121764 -79.1864253 0 0 0 0 0 0 0 0 PRO5.61
2022-05-25 15:35:31 23 18.00 0.115000 42.121764 -79.1864253 0 0 0 0 0 0 0 0 PRO5.61
2022-05-25 15:34:30 11 18.10 0.055000 42.121764 -79.1864253 0 0 0 0 0 0 0 0 PRO5.61
2022-05-25 15:33:29 18 18.80 0.090000 42.121764 -79.1864253 0 0 0 0 0 0 0 0 PRO5.61
2022-05-25 15:32:28 21 18.60 0.105000 42.121764 -79.1864253 0 0 0 0 0 0 0 0 PRO5.61
2022-05-25 15:31:27 18 17.90 0.090000 42.121764 -79.1864253 0 0 0 0 0 0 0 0 PRO5.61
2022-05-25 15:30:26 19 17.20 0.095000 42.121764 -79.1864253 0 0 0 0 0 0 0 0 PRO5.61
2022-05-25 15:29:25 17 17.10 0.085000 42.121764 -79.1864253 0 0 0 0 0 0 0 0 PRO5.61
2022-05-25 15:28:24 17 17.00 0.085000 42.121764 -79.1864253 0 0 0 0 0 0 0 0 PRO5.61
2022-05-25 15:27:23 16 17.20 0.080000 42.121764 -79.1864253 0 0 0 0 0 0 0 0 PRO5.61
2022-05-25 15:26:20 19 17.10 0.095000 42.121764 -79.1864253 0 0 0 0 0 0 0 0 PRO5.61
2022-05-25 15:25:19 24 16.70 0.120000 42.121764 -79.1864253 0 0 0 0 0 0 0 0 PRO5.61
2022-05-25 15:24:18 19 16.40 0.095000 42.121764 -79.1864253 0 0 0 0 0 0 0 0 PRO5.61
2022-05-25 15:23:17 15 16.60 0.075000 42.121764 -79.1864253 0 0 0 0 0 0 0 0 PRO5.61
2022-05-25 15:22:16 16 16.80 0.080000 42.121764 -79.1864253 0 0 0 0 0 0 0 0 PRO5.61
2022-05-25 15:21:15 9 16.50 0.045000 42.121764 -79.1864253 0 0 0 0 0 0 0 0 PRO5.61
2022-05-25 15:20:14 18 18.40 0.090000 42.121764 -79.1864253 0 0 0 0 0 0 0 0 PRO5.61
2022-05-25 15:19:13 16 17.40 0.080000 42.121764 -79.1864253 0 0 0 0 0 0 0 0 PRO5.61
2022-05-25 15:18:12 18 17.30 0.090000 42.121764 -79.1864253 0 0 0 0 0 0 0 0 PRO5.61
2022-05-25 15:17:11 16 17.20 0.080000 42.121764 -79.1864253 0 0 0 0 0 0 0 0 PRO5.61
2022-05-25 15:16:10 18 18.00 0.090000 42.121764 -79.1864253 0 0 0 0 0 0 0 0 PRO5.61
2022-05-25 15:15:09 19 18.70 0.095000 42.121764 -79.1864253 0 0 0 0 0 0 0 0 PRO5.61
2022-05-25 15:14:08 18 18.30 0.090000 42.121764 -79.1864253 0 0 0 0 0 0 0 0 PRO5.61
2022-05-25 15:13:07 20 17.80 0.100000 42.121764 -79.1864253 0 0 0 0 0 0 0 0 PRO5.61
2022-05-25 15:12:06 14 17.50 0.070000 42.121764 -79.1864253 0 0 0 0 0 0 0 0 PRO5.61
2022-05-25 15:11:05 24 18.70 0.120000 42.121764 -79.1864253 0 0 0 0 0 0 0 0 PRO5.61
2022-05-25 15:10:04 11 18.10 0.055000 42.121764 -79.1864253 0 0 0 0 0 0 0 0 PRO5.61
2022-05-25 15:09:03 15 19.00 0.075000 42.121764 -79.1864253 0 0 0 0 0 0 0 0 PRO5.61
2022-05-25 15:08:02 19 19.10 0.095000 42.121764 -79.1864253 0 0 0 0 0 0 0 0 PRO5.61
2022-05-25 15:07:01 25 18.80 0.125000 42.121764 -79.1864253 0 0 0 0 0 0 0 0 PRO5.61
2022-05-25 15:06:00 20 18.80 0.100000 42.121764 -79.1864253 0 0 0 0 0 0 0 0 PRO5.61
2022-05-25 15:04:59 15 19.30 0.075000 42.121764 -79.1864253 0 0 0 0 0 0 0 0 PRO5.61
2022-05-25 15:03:58 12 19.10 0.060000 42.121764 -79.1864253 0 0 0 0 0 0 0 0 PRO5.61
2022-05-25 15:02:57 17 19.70 0.085000 42.121764 -79.1864253 0 0 0 0 0 0 0 0 PRO5.61
2022-05-25 15:01:56 28 20.60 0.140000 42.121764 -79.1864253 0 0 0 0 0 0 0 0 PRO5.61
2022-05-25 15:00:55 16 20.20 0.080000 42.121764 -79.1864253 0 0 0 0 0 0 0 0 PRO5.61
2022-05-25 14:59:54 20 20.60 0.100000 42.121764 -79.1864253 0 0 0 0 0 0 0 0 PRO5.61
2022-05-25 14:58:53 16 20.40 0.080000 42.121764 -79.1864253 0 0 0 0 0 0 0 0 PRO5.61
2022-05-25 14:57:52 16 20.80 0.080000 42.121764 -79.1864253 0 0 0 0 0 0 0 0 PRO5.61
2022-05-25 14:56:51 28 21.60 0.140000 42.121764 -79.1864253 0 0 0 0 0 0 0 0 PRO5.61
2022-05-25 14:55:50 26 20.50 0.130000 42.121764 -79.1864253 0 0 0 0 0 0 0 0 PRO5.61
2022-05-25 14:54:49 13 19.70 0.065000 42.121764 -79.1864253 0 0 0 0 0 0 0 0 PRO5.61
2022-05-25 14:53:48 21 20.30 0.105000 42.121764 -79.1864253 0 0 0 0 0 0 0 0 PRO5.61
2022-05-25 14:52:47 28 20.20 0.140000 42.121764 -79.1864253 0 0 0 0 0 0 0 0 PRO5.61
2022-05-25 14:51:46 17 19.20 0.085000 42.121764 -79.1864253 0 0 0 0 0 0 0 0 PRO5.61
2022-05-25 14:50:45 22 18.80 0.110000 42.121764 -79.1864253 0 0 0 0 0 0 0 0 PRO5.61
2022-05-25 14:49:44 19 18.90 0.095000 42.121764 -79.1864253 0 0 0 0 0 0 0 0 PRO5.61
2022-05-25 14:48:43 20 18.20 0.100000 42.121764 -79.1864253 0 0 0 0 0 0 0 0 PRO5.61
2022-05-25 14:47:42 23 17.70 0.115000 42.121764 -79.1864253 0 0 0 0 0 0 0 0 PRO5.61
2022-05-25 14:46:41 18 17.40 0.090000 42.121764 -79.1864253 0 0 0 0 0 0 0 0 PRO5.61
2022-05-25 14:45:40 16 17.80 0.080000 42.121764 -79.1864253 0 0 0 0 0 0 0 0 PRO5.61
2022-05-25 14:44:39 17 18.00 0.085000 42.121764 -79.1864253 0 0 0 0 0 0 0 0 PRO5.61
2022-05-25 14:43:38 21 18.00 0.105000 42.121764 -79.1864253 0 0 0 0 0 0 0 0 PRO5.61
2022-05-25 14:42:37 19 17.70 0.095000 42.121764 -79.1864253 0 0 0 0 0 0 0 0 PRO5.61
2022-05-25 14:41:36 14 17.30 0.070000 42.121764 -79.1864253 0 0 0 0 0 0 0 0 PRO5.61
2022-05-25 14:40:35 21 17.30 0.105000 42.121764 -79.1864253 0 0 0 0 0 0 0 0 PRO5.61
2022-05-25 14:39:34 12 17.10 0.060000 42.121764 -79.1864253 0 0 0 0 0 0 0 0 PRO5.61
2022-05-25 14:38:33 18 17.70 0.090000 42.121764 -79.1864253 0 0 0 0 0 0 0 0 PRO5.61
2022-05-25 14:37:32 20 17.40 0.100000 42.121764 -79.1864253 0 0 0 0 0 0 0 0 PRO5.61
2022-05-25 14:36:31 21 16.70 0.105000 42.121764 -79.1864253 0 0 0 0 0 0 0 0 PRO5.61
2022-05-25 14:35:30 16 16.80 0.080000 42.121764 -79.1864253 0 0 0 0 0 0 0 0 PRO5.61
2022-05-25 14:34:29 17 16.30 0.085000 42.121764 -79.1864253 0 0 0 0 0 0 0 0 PRO5.61
2022-05-25 14:33:28 16 16.30 0.080000 42.121764 -79.1864253 0 0 0 0 0 0 0 0 PRO5.61
2022-05-25 14:32:27 17 16.30 0.085000 42.121764 -79.1864253 0 0 0 0 0 0 0 0 PRO5.61
2022-05-25 14:31:26 13 15.90 0.065000 42.121764 -79.1864253 0 0 0 0 0 0 0 0 PRO5.61
2022-05-25 14:30:25 25 16.10 0.125000 42.121764 -79.1864253 0 0 0 0 0 0 0 0 PRO5.61
2022-05-25 14:29:24 11 15.90 0.055000 42.121764 -79.1864253 0 0 0 0 0 0 0 0 PRO5.61
2022-05-25 14:28:23 17 15.90 0.085000 42.121764 -79.1864253 0 0 0 0 0 0 0 0 PRO5.61
2022-05-25 14:27:22 15 16.40 0.075000 42.121764 -79.1864253 0 0 0 0 0 0 0 0 PRO5.61
2022-05-25 14:26:19 21 16.50 0.105000 42.121764 -79.1864253 0 0 0 0 0 0 0 0 PRO5.61
2022-05-25 14:25:18 11 16.60 0.055000 42.121764 -79.1864253 0 0 0 0 0 0 0 0 PRO5.61
2022-05-25 14:24:17 19 17.30 0.095000 42.121764 -79.1864253 0 0 0 0 0 0 0 0 PRO5.61
2022-05-25 14:23:16 17 17.30 0.085000 42.121764 -79.1864253 0 0 0 0 0 0 0 0 PRO5.61
2022-05-25 14:22:15 13 17.80 0.065000 42.121764 -79.1864253 0 0 0 0 0 0 0 0 PRO5.61
2022-05-25 14:21:14 16 18.50 0.080000 42.121764 -79.1864253 0 0 0 0 0 0 0 0 PRO5.61
2022-05-25 14:20:13 19 18.70 0.095000 42.121764 -79.1864253 0 0 0 0 0 0 0 0 PRO5.61
2022-05-25 14:19:12 11 18.90 0.055000 42.121764 -79.1864253 0 0 0 0 0 0 0 0 PRO5.61
2022-05-25 14:18:11 23 20.20 0.115000 42.121764 -79.1864253 0 0 0 0 0 0 0 0 PRO5.61
2022-05-25 14:17:10 15 20.30 0.075000 42.121764 -79.1864253 0 0 0 0 0 0 0 0 PRO5.61
2022-05-25 14:16:09 23 20.70 0.115000 42.121764 -79.1864253 0 0 0 0 0 0 0 0 PRO5.61
2022-05-25 14:15:08 21 20.40 0.105000 42.121764 -79.1864253 0 0 0 0 0 0 0 0 PRO5.61
2022-05-25 14:14:07 19 20.10 0.095000 42.121764 -79.1864253 0 0 0 0 0 0 0 0 PRO5.61
2022-05-25 14:13:06 18 20.00 0.090000 42.121764 -79.1864253 0 0 0 0 0 0 0 0 PRO5.61
2022-05-25 14:12:05 25 20.10 0.125000 42.121764 -79.1864253 0 0 0 0 0 0 0 0 PRO5.61
2022-05-25 14:11:04 17 19.70 0.085000 42.121764 -79.1864253 0 0 0 0 0 0 0 0 PRO5.61
2022-05-25 14:10:03 19 19.70 0.095000 42.121764 -79.1864253 0 0 0 0 0 0 0 0 PRO5.61
2022-05-25 14:09:02 23 20.10 0.115000 42.121764 -79.1864253 0 0 0 0 0 0 0 0 PRO5.61
2022-05-25 14:08:01 22 19.50 0.110000 42.121764 -79.1864253 0 0 0 0 0 0 0 0 PRO5.61
2022-05-25 14:07:00 18 18.80 0.090000 42.121764 -79.1864253 0 0 0 0 0 0 0 0 PRO5.61
2022-05-25 14:05:59 20 18.50 0.100000 42.121764 -79.1864253 0 0 0 0 0 0 0 0 PRO5.61
2022-05-25 14:04:58 19 18.40 0.095000 42.121764 -79.1864253 0 0 0 0 0 0 0 0 PRO5.61
2022-05-25 14:03:57 18 19.40 0.090000 42.121764 -79.1864253 0 0 0 0 0 0 0 0 PRO5.61
2022-05-25 14:02:56 18 19.00 0.090000 42.121764 -79.1864253 0 0 0 0 0 0 0 0 PRO5.61
2022-05-25 14:01:55 23 18.80 0.115000 42.121764 -79.1864253 0 0 0 0 0 0 0 0 PRO5.61
2022-05-25 14:00:54 16 18.10 0.080000 42.121764 -79.1864253 0 0 0 0 0 0 0 0 PRO5.61
2022-05-25 13:59:53 23 18.90 0.115000 42.121764 -79.1864253 0 0 0 0 0 0 0 0 PRO5.61
2022-05-25 13:58:52 19 18.30 0.095000 42.121764 -79.1864253 0 0 0 0 0 0 0 0 PRO5.61
2022-05-25 13:57:51 13 17.90 0.065000 42.121764 -79.1864253 0 0 0 0 0 0 0 0 PRO5.61
2022-05-25 13:56:50 14 18.00 0.070000 42.121764 -79.1864253 0 0 0 0 0 0 0 0 PRO5.61
2022-05-25 13:55:49 22 17.60 0.110000 42.121764 -79.1864253 0 0 0 0 0 0 0 0 PRO5.61
2022-05-25 13:54:48 26 17.50 0.130000 42.121764 -79.1864253 0 0 0 0 0 0 0 0 PRO5.61
2022-05-25 13:53:47 13 16.80 0.065000 42.121764 -79.1864253 0 0 0 0 0 0 0 0 PRO5.61
2022-05-25 13:52:46 16 17.00 0.080000 42.121764 -79.1864253 0 0 0 0 0 0 0 0 PRO5.61
2022-05-25 13:51:45 19 18.10 0.095000 42.121764 -79.1864253 0 0 0 0 0 0 0 0 PRO5.61
2022-05-25 13:50:44 24 17.90 0.120000 42.121764 -79.1864253 0 0 0 0 0 0 0 0 PRO5.61
2022-05-25 13:49:43 15 18.00 0.075000 42.121764 -79.1864253 0 0 0 0 0 0 0 0 PRO5.61
2022-05-25 13:48:42 16 18.90 0.080000 42.121764 -79.1864253 0 0 0 0 0 0 0 0 PRO5.61
2022-05-25 13:47:41 13 19.10 0.065000 42.121764 -79.1864253 0 0 0 0 0 0 0 0 PRO5.61
2022-05-25 13:46:40 14 19.40 0.070000 42.121764 -79.1864253 0 0 0 0 0 0 0 0 PRO5.61
2022-05-25 13:45:39 17 19.30 0.085000 42.121764 -79.1864253 0 0 0 0 0 0 0 0 PRO5.61
2022-05-25 13:44:38 21 18.80 0.105000 42.121764 -79.1864253 0 0 0 0 0 0 0 0 PRO5.61
2022-05-25 13:43:37 16 18.70 0.080000 42.121764 -79.1864253 0 0 0 0 0 0 0 0 PRO5.61
2022-05-25 13:42:36 25 19.00 0.125000 42.121764 -79.1864253 0 0 0 0 0 0 0 0 PRO5.61
2022-05-25 13:41:35 17 18.40 0.085000 42.121764 -79.1864253 0 0 0 0 0 0 0 0 PRO5.61
2022-05-25 13:40:34 26 18.10 0.130000 42.121764 -79.1864253 0 0 0 0 0 0 0 0 PRO5.61
2022-05-25 13:39:33 22 17.70 0.110000 42.121764 -79.1864253 0 0 0 0 0 0 0 0 PRO5.61
2022-05-25 13:38:32 19 17.80 0.095000 42.121764 -79.1864253 0 0 0 0 0 0 0 0 PRO5.61
2022-05-25 13:37:31 17 17.40 0.085000 42.121764 -79.1864253 0 0 0 0 0 0 0 0 PRO5.61
2022-05-25 13:36:30 15 16.70 0.075000 42.121764 -79.1864253 0 0 0 0 0 0 0 0 PRO5.61
2022-05-25 13:35:29 11 16.20 0.055000 42.121764 -79.1864253 0 0 0 0 0 0 0 0 PRO5.61
2022-05-25 13:34:28 17 16.20 0.085000 42.121764 -79.1864253 0 0 0 0 0 0 0 0 PRO5.61
2022-05-25 13:33:27 22 16.30 0.110000 42.121764 -79.1864253 0 0 0 0 0 0 0 0 PRO5.61
2022-05-25 13:32:26 17 15.60 0.085000 42.121764 -79.1864253 0 0 0 0 0 0 0 0 PRO5.61
2022-05-25 13:31:25 14 16.60 0.070000 42.121764 -79.1864253 0 0 0 0 0 0 0 0 PRO5.61
2022-05-25 13:30:24 24 17.30 0.120000 42.121764 -79.1864253 0 0 0 0 0 0 0 0 PRO5.61
2022-05-25 13:29:23 20 16.00 0.100000 42.121764 -79.1864253 0 0 0 0 0 0 0 0 PRO5.61
2022-05-25 13:28:22 18 15.90 0.090000 42.121764 -79.1864253 0 0 0 0 0 0 0 0 PRO5.61
2022-05-25 13:27:21 6 15.50 0.030000 42.121764 -79.1864253 0 0 0 0 0 0 0 0 PRO5.61
2022-05-25 13:26:18 9 16.60 0.045000 42.121764 -79.1864253 0 0 0 0 0 0 0 0 PRO5.61
2022-05-25 13:25:17 12 17.00 0.060000 42.121764 -79.1864253 0 0 0 0 0 0 0 0 PRO5.61
2022-05-25 13:24:16 23 17.70 0.115000 42.121764 -79.1864253 0 0 0 0 0 0 0 0 PRO5.61
2022-05-25 13:23:15 14 17.60 0.070000 42.121764 -79.1864253 0 0 0 0 0 0 0 0 PRO5.61
2022-05-25 13:22:14 28 19.60 0.140000 42.121764 -79.1864253 0 0 0 0 0 0 0 0 PRO5.61
2022-05-25 13:21:13 20 18.50 0.100000 42.121764 -79.1864253 0 0 0 0 0 0 0 0 PRO5.61
2022-05-25 13:20:12 12 18.00 0.060000 42.121764 -79.1864253 0 0 0 0 0 0 0 0 PRO5.61
2022-05-25 13:19:11 19 18.40 0.095000 42.121764 -79.1864253 0 0 0 0 0 0 0 0 PRO5.61
2022-05-25 13:18:10 14 18.40 0.070000 42.121764 -79.1864253 0 0 0 0 0 0 0 0 PRO5.61
2022-05-25 13:17:09 17 19.30 0.085000 42.121764 -79.1864253 0 0 0 0 0 0 0 0 PRO5.61
2022-05-25 13:16:08 13 19.50 0.065000 42.121764 -79.1864253 0 0 0 0 0 0 0 0 PRO5.61
2022-05-25 13:15:07 20 20.20 0.100000 42.121764 -79.1864253 0 0 0 0 0 0 0 0 PRO5.61
2022-05-25 13:14:06 21 21.10 0.105000 42.121764 -79.1864253 0 0 0 0 0 0 0 0 PRO5.61
2022-05-25 13:13:05 30 20.10 0.150000 42.121764 -79.1864253 0 0 0 0 0 0 0 0 PRO5.61
2022-05-25 13:12:04 17 18.60 0.085000 42.121764 -79.1864253 0 0 0 0 0 0 0 0 PRO5.61
2022-05-25 13:11:03 15 18.50 0.075000 42.121764 -79.1864253 0 0 0 0 0 0 0 0 PRO5.61
2022-05-25 13:10:02 16 18.30 0.080000 42.121764 -79.1864253 0 0 0 0 0 0 0 0 PRO5.61
2022-05-25 13:09:01 23 18.80 0.115000 42.121764 -79.1864253 0 0 0 0 0 0 0 0 PRO5.61
2022-05-25 13:08:00 19 18.30 0.095000 42.121764 -79.1864253 0 0 0 0 0 0 0 0 PRO5.61
2022-05-25 13:06:59 20 18.60 0.100000 42.121764 -79.1864253 0 0 0 0 0 0 0 0 PRO5.61
2022-05-25 13:05:58 21 17.50 0.105000 42.121764 -79.1864253 0 0 0 0 0 0 0 0 PRO5.61
2022-05-25 13:04:57 30 17.10 0.150000 42.121764 -79.1864253 0 0 0 0 0 0 0 0 PRO5.61
2022-05-25 13:03:56 12 15.80 0.060000 42.121764 -79.1864253 0 0 0 0 0 0 0 0 PRO5.61
2022-05-25 13:02:55 16 15.90 0.080000 42.121764 -79.1864253 0 0 0 0 0 0 0 0 PRO5.61
2022-05-25 13:01:54 14 16.20 0.070000 42.121764 -79.1864253 0 0 0 0 0 0 0 0 PRO5.61
2022-05-25 13:00:53 12 17.00 0.060000 42.121764 -79.1864253 0 0 0 0 0 0 0 0 PRO5.61
2022-05-25 12:59:52 23 16.90 0.115000 42.121764 -79.1864253 0 0 0 0 0 0 0 0 PRO5.61
2022-05-25 12:58:51 21 16.60 0.105000 42.121764 -79.1864253 0 0 0 0 0 0 0 0 PRO5.61
2022-05-25 12:57:50 14 16.50 0.070000 42.121764 -79.1864253 0 0 0 0 0 0 0 0 PRO5.61
2022-05-25 12:56:49 10 16.40 0.050000 42.121764 -79.1864253 0 0 0 0 0 0 0 0 PRO5.61
2022-05-25 12:55:48 19 16.80 0.095000 42.121764 -79.1864253 0 0 0 0 0 0 0 0 PRO5.61
2022-05-25 12:54:47 16 17.00 0.080000 42.121764 -79.1864253 0 0 0 0 0 0 0 0 PRO5.61
2022-05-25 12:53:46 13 16.30 0.065000 42.121764 -79.1864253 0 0 0 0 0 0 0 0 PRO5.61
2022-05-25 12:52:45 20 16.80 0.100000 42.121764 -79.1864253 0 0 0 0 0 0 0 0 PRO5.61
2022-05-25 12:51:44 20 16.40 0.100000 42.121764 -79.1864253 0 0 0 0 0 0 0 0 PRO5.61
2022-05-25 12:50:43 11 16.10 0.055000 42.121764 -79.1864253 0 0 0 0 0 0 0 0 PRO5.61
2022-05-25 12:49:42 21 17.20 0.105000 42.121764 -79.1864253 0 0 0 0 0 0 0 0 PRO5.61
2022-05-25 12:48:41 20 16.00 0.100000 42.121764 -79.1864253 0 0 0 0 0 0 0 0 PRO5.61
2022-05-25 12:47:40 13 15.70 0.065000 42.121764 -79.1864253 0 0 0 0 0 0 0 0 PRO5.61
2022-05-25 12:46:39 15 16.00 0.075000 42.121764 -79.1864253 0 0 0 0 0 0 0 0 PRO5.61
2022-05-25 12:45:38 16 16.50 0.080000 42.121764 -79.1864253 0 0 0 0 0 0 0 0 PRO5.61
2022-05-25 12:44:37 11 17.00 0.055000 42.121764 -79.1864253 0 0 0 0 0 0 0 0 PRO5.61
2022-05-25 12:43:36 20 17.80 0.100000 42.121764 -79.1864253 0 0 0 0 0 0 0 0 PRO5.61
2022-05-25 12:42:35 15 18.10 0.075000 42.121764 -79.1864253 0 0 0 0 0 0 0 0 PRO5.61
2022-05-25 12:41:34 19 18.10 0.095000 42.121764 -79.1864253 0 0 0 0 0 0 0 0 PRO5.61
2022-05-25 12:40:33 20 18.20 0.100000 42.121764 -79.1864253 0 0 0 0 0 0 0 0 PRO5.61
2022-05-25 12:39:32 11 17.50 0.055000 42.121764 -79.1864253 0 0 0 0 0 0 0 0 PRO5.61
2022-05-25 12:38:31 22 17.90 0.110000 42.121764 -79.1864253 0 0 0 0 0 0 0 0 PRO5.61
2022-05-25 12:37:30 9 17.70 0.045000 42.121764 -79.1864253 0 0 0 0 0 0 0 0 PRO5.61
2022-05-25 12:36:29 23 18.70 0.115000 42.121764 -79.1864253 0 0 0 0 0 0 0 0 PRO5.61
2022-05-25 12:35:28 22 18.40 0.110000 42.121764 -79.1864253 0 0 0 0 0 0 0 0 PRO5.61
2022-05-25 12:34:27 20 17.50 0.100000 42.121764 -79.1864253 0 0 0 0 0 0 0 0 PRO5.61
2022-05-25 12:33:26 21 17.00 0.105000 42.121764 -79.1864253 0 0 0 0 0 0 0 0 PRO5.61
2022-05-25 12:32:25 13 16.70 0.065000 42.121764 -79.1864253 0 0 0 0 0 0 0 0 PRO5.61
2022-05-25 12:31:24 19 17.50 0.095000 42.121764 -79.1864253 0 0 0 0 0 0 0 0 PRO5.61
2022-05-25 12:30:23 14 17.10 0.070000 42.121764 -79.1864253 0 0 0 0 0 0 0 0 PRO5.61
2022-05-25 12:29:22 16 17.10 0.080000 42.121764 -79.1864253 0 0 0 0 0 0 0 0 PRO5.61
2022-05-25 12:28:21 25 17.10 0.125000 42.121764 -79.1864253 0 0 0 0 0 0 0 0 PRO5.61
2022-05-25 12:27:20 14 16.10 0.070000 42.121764 -79.1864253 0 0 0 0 0 0 0 0 PRO5.61
2022-05-25 12:26:17 25 16.20 0.125000 42.121764 -79.1864253 0 0 0 0 0 0 0 0 PRO5.61
2022-05-25 12:25:16 7 15.30 0.035000 42.121764 -79.1864253 0 0 0 0 0 0 0 0 PRO5.61
2022-05-25 12:24:15 22 16.50 0.110000 42.121764 -79.1864253 0 0 0 0 0 0 0 0 PRO5.61
2022-05-25 12:23:14 12 16.10 0.060000 42.121764 -79.1864253 0 0 0 0 0 0 0 0 PRO5.61
2022-05-25 12:22:13 19 16.50 0.095000 42.121764 -79.1864253 0 0 0 0 0 0 0 0 PRO5.61
2022-05-25 12:21:12 17 16.30 0.085000 42.121764 -79.1864253 0 0 0 0 0 0 0 0 PRO5.61
2022-05-25 12:20:11 15 16.20 0.075000 42.121764 -79.1864253 0 0 0 0 0 0 0 0 PRO5.61
2022-05-25 12:19:10 14 16.10 0.070000 42.121764 -79.1864253 0 0 0 0 0 0 0 0 PRO5.61
2022-05-25 12:18:09 17 16.70 0.085000 42.121764 -79.1864253 0 0 0 0 0 0 0 0 PRO5.61
2022-05-25 12:17:08 19 18.10 0.095000 42.121764 -79.1864253 0 0 0 0 0 0 0 0 PRO5.61
2022-05-25 12:16:07 13 17.20 0.065000 42.121764 -79.1864253 0 0 0 0 0 0 0 0 PRO5.61
2022-05-25 12:15:06 18 18.10 0.090000 42.121764 -79.1864253 0 0 0 0 0 0 0 0 PRO5.61
2022-05-25 12:14:05 20 18.20 0.100000 42.121764 -79.1864253 0 0 0 0 0 0 0 0 PRO5.61
2022-05-25 12:13:04 15 18.10 0.075000 42.121764 -79.1864253 0 0 0 0 0 0 0 0 PRO5.61
2022-05-25 12:12:03 16 18.20 0.080000 42.121764 -79.1864253 0 0 0 0 0 0 0 0 PRO5.61
2022-05-25 12:11:02 16 17.90 0.080000 42.121764 -79.1864253 0 0 0 0 0 0 0 0 PRO5.61
2022-05-25 12:10:01 11 18.20 0.055000 42.121764 -79.1864253 0 0 0 0 0 0 0 0 PRO5.61
2022-05-25 12:09:00 24 18.90 0.120000 42.121764 -79.1864253 0 0 0 0 0 0 0 0 PRO5.61
2022-05-25 12:07:59 29 18.90 0.145000 42.121764 -79.1864253 0 0 0 0 0 0 0 0 PRO5.61
2022-05-25 12:06:58 11 17.60 0.055000 42.121764 -79.1864253 0 0 0 0 0 0 0 0 PRO5.61
2022-05-25 12:05:57 21 18.50 0.105000 42.121764 -79.1864253 0 0 0 0 0 0 0 0 PRO5.61
2022-05-25 12:04:56 20 18.50 0.100000 42.121764 -79.1864253 0 0 0 0 0 0 0 0 PRO5.61
2022-05-25 12:03:55 20 18.10 0.100000 42.121764 -79.1864253 0 0 0 0 0 0 0 0 PRO5.61
2022-05-25 12:02:54 14 18.10 0.070000 42.121764 -79.1864253 0 0 0 0 0 0 0 0 PRO5.61
2022-05-25 12:01:53 10 18.80 0.050000 42.121764 -79.1864253 0 0 0 0 0 0 0 0 PRO5.61
2022-05-25 12:00:52 22 19.20 0.110000 42.121764 -79.1864253 0 0 0 0 0 0 0 0 PRO5.61
2022-05-25 11:59:51 17 17.90 0.085000 42.121764 -79.1864253 0 0 0 0 0 0 0 0 PRO5.61
2022-05-25 11:58:50 23 17.70 0.115000 42.121764 -79.1864253 0 0 0 0 0 0 0 0 PRO5.61
2022-05-25 11:57:49 17 17.10 0.085000 42.121764 -79.1864253 0 0 0 0 0 0 0 0 PRO5.61
2022-05-25 11:56:48 21 16.80 0.105000 42.121764 -79.1864253 0 0 0 0 0 0 0 0 PRO5.61
2022-05-25 11:55:47 20 16.30 0.100000 42.121764 -79.1864253 0 0 0 0 0 0 0 0 PRO5.61
2022-05-25 11:54:46 18 16.30 0.090000 42.121764 -79.1864253 0 0 0 0 0 0 0 0 PRO5.61
2022-05-25 11:53:45 18 17.00 0.090000 42.121764 -79.1864253 0 0 0 0 0 0 0 0 PRO5.61
2022-05-25 11:52:44 20 16.60 0.100000 42.121764 -79.1864253 0 0 0 0 0 0 0 0 PRO5.61
2022-05-25 11:51:43 13 15.60 0.065000 42.121764 -79.1864253 0 0 0 0 0 0 0 0 PRO5.61
2022-05-25 11:50:42 11 16.30 0.055000 42.121764 -79.1864253 0 0 0 0 0 0 0 0 PRO5.61
2022-05-25 11:49:41 12 17.10 0.060000 42.121764 -79.1864253 0 0 0 0 0 0 0 0 PRO5.61
2022-05-25 11:48:40 18 17.70 0.090000 42.121764 -79.1864253 0 0 0 0 0 0 0 0 PRO5.61
2022-05-25 11:47:39 15 17.50 0.075000 42.121764 -79.1864253 0 0 0 0 0 0 0 0 PRO5.61
2022-05-25 11:46:38 17 17.70 0.085000 42.121764 -79.1864253 0 0 0 0 0 0 0 0 PRO5.61
2022-05-25 11:45:37 17 17.80 0.085000 42.121764 -79.1864253 0 0 0 0 0 0 0 0 PRO5.61
2022-05-25 11:44:36 26 17.80 0.130000 42.121764 -79.1864253 0 0 0 0 0 0 0 0 PRO5.61
2022-05-25 11:43:35 12 16.80 0.060000 42.121764 -79.1864253 0 0 0 0 0 0 0 0 PRO5.61
2022-05-25 11:42:34 13 16.40 0.065000 42.121764 -79.1864253 0 0 0 0 0 0 0 0 PRO5.61
2022-05-25 11:41:33 19 16.50 0.095000 42.121764 -79.1864253 0 0 0 0 0 0 0 0 PRO5.61
2022-05-25 11:40:32 17 16.20 0.085000 42.121764 -79.1864253 0 0 0 0 0 0 0 0 PRO5.61
2022-05-25 11:39:31 20 15.80 0.100000 42.121764 -79.1864253 0 0 0 0 0 0 0 0 PRO5.61
2022-05-25 11:38:30 18 15.10 0.090000 42.121764 -79.1864253 0 0 0 0 0 0 0 0 PRO5.61
2022-05-25 11:37:29 15 15.20 0.075000 42.121764 -79.1864253 0 0 0 0 0 0 0 0 PRO5.61
2022-05-25 11:36:28 17 15.00 0.085000 42.121764 -79.1864253 0 0 0 0 0 0 0 0 PRO5.61
2022-05-25 11:35:27 19 14.90 0.095000 42.121764 -79.1864253 0 0 0 0 0 0 0 0 PRO5.61
2022-05-25 11:34:26 13 15.50 0.065000 42.121764 -79.1864253 0 0 0 0 0 0 0 0 PRO5.61
2022-05-25 11:33:25 11 16.30 0.055000 42.121764 -79.1864253 0 0 0 0 0 0 0 0 PRO5.61
2022-05-25 11:32:24 15 16.80 0.075000 42.121764 -79.1864253 0 0 0 0 0 0 0 0 PRO5.61
2022-05-25 11:31:23 17 17.30 0.085000 42.121764 -79.1864253 0 0 0 0 0 0 0 0 PRO5.61
2022-05-25 11:30:22 12 16.90 0.060000 42.121764 -79.1864253 0 0 0 0 0 0 0 0 PRO5.61
2022-05-25 11:29:21 17 17.00 0.085000 42.121764 -79.1864253 0 0 0 0 0 0 0 0 PRO5.61
2022-05-25 11:28:20 16 16.50 0.080000 42.121764 -79.1864253 0 0 0 0 0 0 0 0 PRO5.61
2022-05-25 11:27:19 13 16.80 0.065000 42.121764 -79.1864253 0 0 0 0 0 0 0 0 PRO5.61
2022-05-25 11:26:16 19 17.10 0.095000 42.121764 -79.1864253 0 0 0 0 0 0 0 0 PRO5.61
2022-05-25 11:25:15 25 16.80 0.125000 42.121764 -79.1864253 0 0 0 0 0 0 0 0 PRO5.61
2022-05-25 11:24:14 19 16.90 0.095000 42.121764 -79.1864253 0 0 0 0 0 0 0 0 PRO5.61
2022-05-25 11:23:13 15 17.20 0.075000 42.121764 -79.1864253 0 0 0 0 0 0 0 0 PRO5.61
2022-05-25 11:22:12 20 17.90 0.100000 42.121764 -79.1864253 0 0 0 0 0 0 0 0 PRO5.61
2022-05-25 11:21:11 14 17.80 0.070000 42.121764 -79.1864253 0 0 0 0 0 0 0 0 PRO5.61
2022-05-25 11:20:10 12 18.20 0.060000 42.121764 -79.1864253 0 0 0 0 0 0 0 0 PRO5.61
2022-05-25 11:19:09 12 19.00 0.060000 42.121764 -79.1864253 0 0 0 0 0 0 0 0 PRO5.61
2022-05-25 11:18:08 14 20.30 0.070000 42.121764 -79.1864253 0 0 0 0 0 0 0 0 PRO5.61
2022-05-25 11:17:07 16 20.50 0.080000 42.121764 -79.1864253 0 0 0 0 0 0 0 0 PRO5.61
2022-05-25 11:16:06 17 20.90 0.085000 42.121764 -79.1864253 0 0 0 0 0 0 0 0 PRO5.61
2022-05-25 11:15:05 24 20.60 0.120000 42.121764 -79.1864253 0 0 0 0 0 0 0 0 PRO5.61
2022-05-25 11:14:04 22 20.00 0.110000 42.121764 -79.1864253 0 0 0 0 0 0 0 0 PRO5.61
2022-05-25 11:13:03 23 19.30 0.115000 42.121764 -79.1864253 0 0 0 0 0 0 0 0 PRO5.61
2022-05-25 11:12:02 19 19.30 0.095000 42.121764 -79.1864253 0 0 0 0 0 0 0 0 PRO5.61
2022-05-25 11:11:01 17 19.40 0.085000 42.121764 -79.1864253 0 0 0 0 0 0 0 0 PRO5.61
2022-05-25 11:10:00 23 19.10 0.115000 42.121764 -79.1864253 0 0 0 0 0 0 0 0 PRO5.61
2022-05-25 11:08:59 24 19.50 0.120000 42.121764 -79.1864253 0 0 0 0 0 0 0 0 PRO5.61
2022-05-25 11:07:58 19 19.10 0.095000 42.121764 -79.1864253 0 0 0 0 0 0 0 0 PRO5.61
2022-05-25 11:06:57 19 19.30 0.095000 42.121764 -79.1864253 0 0 0 0 0 0 0 0 PRO5.61
2022-05-25 11:05:56 16 18.90 0.080000 42.121764 -79.1864253 0 0 0 0 0 0 0 0 PRO5.61
2022-05-25 11:04:55 18 18.90 0.090000 42.121764 -79.1864253 0 0 0 0 0 0 0 0 PRO5.61
2022-05-25 11:03:54 16 18.60 0.080000 42.121764 -79.1864253 0 0 0 0 0 0 0 0 PRO5.61
2022-05-25 11:02:53 23 18.30 0.115000 42.121764 -79.1864253 0 0 0 0 0 0 0 0 PRO5.61
2022-05-25 11:01:52 19 17.80 0.095000 42.121764 -79.1864253 0 0 0 0 0 0 0 0 PRO5.61
2022-05-25 11:00:51 13 17.60 0.065000 42.121764 -79.1864253 0 0 0 0 0 0 0 0 PRO5.61
2022-05-25 10:59:50 25 18.90 0.125000 42.121764 -79.1864253 0 0 0 0 0 0 0 0 PRO5.61
2022-05-25 10:58:49 24 18.20 0.120000 42.121764 -79.1864253 0 0 0 0 0 0 0 0 PRO5.61
2022-05-25 10:57:48 18 17.40 0.090000 42.121764 -79.1864253 0 0 0 0 0 0 0 0 PRO5.61
2022-05-25 10:56:47 17 17.20 0.085000 42.121764 -79.1864253 0 0 0 0 0 0 0 0 PRO5.61
2022-05-25 10:55:46 15 17.50 0.075000 42.121764 -79.1864253 0 0 0 0 0 0 0 0 PRO5.61
2022-05-25 10:54:45 14 17.70 0.070000 42.121764 -79.1864253 0 0 0 0 0 0 0 0 PRO5.61
2022-05-25 10:53:44 12 18.10 0.060000 42.121764 -79.1864253 0 0 0 0 0 0 0 0 PRO5.61
2022-05-25 10:52:43 18 18.00 0.090000 42.121764 -79.1864253 0 0 0 0 0 0 0 0 PRO5.61
2022-05-25 10:51:42 16 18.10 0.080000 42.121764 -79.1864253 0 0 0 0 0 0 0 0 PRO5.61
2022-05-25 10:50:41 27 18.40 0.135000 42.121764 -79.1864253 0 0 0 0 0 0 0 0 PRO5.61
2022-05-25 10:49:40 18 16.90 0.090000 42.121764 -79.1864253 0 0 0 0 0 0 0 0 PRO5.61
2022-05-25 10:48:39 16 16.00 0.080000 42.121764 -79.1864253 0 0 0 0 0 0 0 0 PRO5.61
2022-05-25 10:47:38 16 16.60 0.080000 42.121764 -79.1864253 0 0 0 0 0 0 0 0 PRO5.61
2022-05-25 10:46:37 20 17.00 0.100000 42.121764 -79.1864253 0 0 0 0 0 0 0 0 PRO5.61
2022-05-25 10:45:36 19 17.30 0.095000 42.121764 -79.1864253 0 0 0 0 0 0 0 0 PRO5.61
2022-05-25 10:44:35 15 17.20 0.075000 42.121764 -79.1864253 0 0 0 0 0 0 0 0 PRO5.61
2022-05-25 10:43:34 16 17.20 0.080000 42.121764 -79.1864253 0 0 0 0 0 0 0 0 PRO5.61
2022-05-25 10:42:33 17 17.60 0.085000 42.121764 -79.1864253 0 0 0 0 0 0 0 0 PRO5.61
2022-05-25 10:41:32 20 17.80 0.100000 42.121764 -79.1864253 0 0 0 0 0 0 0 0 PRO5.61
2022-05-25 10:40:31 14 17.40 0.070000 42.121764 -79.1864253 0 0 0 0 0 0 0 0 PRO5.61
2022-05-25 10:39:30 12 17.60 0.060000 42.121764 -79.1864253 0 0 0 0 0 0 0 0 PRO5.61
2022-05-25 10:38:29 20 18.70 0.100000 42.121764 -79.1864253 0 0 0 0 0 0 0 0 PRO5.61
2022-05-25 10:37:28 21 18.90 0.105000 42.121764 -79.1864253 0 0 0 0 0 0 0 0 PRO5.61
2022-05-25 10:36:27 22 19.70 0.110000 42.121764 -79.1864253 0 0 0 0 0 0 0 0 PRO5.61
2022-05-25 10:35:26 12 19.30 0.060000 42.121764 -79.1864253 0 0 0 0 0 0 0 0 PRO5.61
2022-05-25 10:34:25 21 19.50 0.105000 42.121764 -79.1864253 0 0 0 0 0 0 0 0 PRO5.61
2022-05-25 10:33:24 17 19.30 0.085000 42.121764 -79.1864253 0 0 0 0 0 0 0 0 PRO5.61
2022-05-25 10:32:23 18 19.30 0.090000 42.121764 -79.1864253 0 0 0 0 0 0 0 0 PRO5.61
2022-05-25 10:31:22 14 19.60 0.070000 42.121764 -79.1864253 0 0 0 0 0 0 0 0 PRO5.61
2022-05-25 10:30:21 20 20.70 0.100000 42.121764 -79.1864253 0 0 0 0 0 0 0 0 PRO5.61
2022-05-25 10:29:20 23 21.10 0.115000 42.121764 -79.1864253 0 0 0 0 0 0 0 0 PRO5.61
2022-05-25 10:28:19 21 20.50 0.105000 42.121764 -79.1864253 0 0 0 0 0 0 0 0 PRO5.61
2022-05-25 10:27:18 24 20.60 0.120000 42.121764 -79.1864253 0 0 0 0 0 0 0 0 PRO5.61
2022-05-25 10:26:15 19 20.50 0.095000 42.121764 -79.1864253 0 0 0 0 0 0 0 0 PRO5.61
2022-05-25 10:25:14 18 19.90 0.090000 42.121764 -79.1864253 0 0 0 0 0 0 0 0 PRO5.61
2022-05-25 10:24:13 16 20.40 0.080000 42.121764 -79.1864253 0 0 0 0 0 0 0 0 PRO5.61
2022-05-25 10:23:12 20 20.70 0.100000 42.121764 -79.1864253 0 0 0 0 0 0 0 0 PRO5.61
2022-05-25 10:22:11 21 20.70 0.105000 42.121764 -79.1864253 0 0 0 0 0 0 0 0 PRO5.61
2022-05-25 10:21:10 30 21.50 0.150000 42.121764 -79.1864253 0 0 0 0 0 0 0 0 PRO5.61
2022-05-25 10:20:09 17 19.90 0.085000 42.121764 -79.1864253 0 0 0 0 0 0 0 0 PRO5.61
2022-05-25 10:19:08 17 19.80 0.085000 42.121764 -79.1864253 0 0 0 0 0 0 0 0 PRO5.61
2022-05-25 10:18:07 26 19.40 0.130000 42.121764 -79.1864253 0 0 0 0 0 0 0 0 PRO5.61
2022-05-25 10:17:06 20 18.50 0.100000 42.121764 -79.1864253 0 0 0 0 0 0 0 0 PRO5.61
2022-05-25 10:16:05 16 18.40 0.080000 42.121764 -79.1864253 0 0 0 0 0 0 0 0 PRO5.61
2022-05-25 10:15:04 20 18.30 0.100000 42.121764 -79.1864253 0 0 0 0 0 0 0 0 PRO5.61
2022-05-25 10:14:03 24 18.40 0.120000 42.121764 -79.1864253 0 0 0 0 0 0 0 0 PRO5.61
2022-05-25 10:13:02 18 18.00 0.090000 42.121764 -79.1864253 0 0 0 0 0 0 0 0 PRO5.61
2022-05-25 10:12:01 27 17.80 0.135000 42.121764 -79.1864253 0 0 0 0 0 0 0 0 PRO5.61
2022-05-25 10:11:00 13 17.30 0.065000 42.121764 -79.1864253 0 0 0 0 0 0 0 0 PRO5.61
2022-05-25 10:09:59 14 17.70 0.070000 42.121764 -79.1864253 0 0 0 0 0 0 0 0 PRO5.61
2022-05-25 10:08:58 18 18.30 0.090000 42.121764 -79.1864253 0 0 0 0 0 0 0 0 PRO5.61
2022-05-25 10:07:57 14 17.80 0.070000 42.121764 -79.1864253 0 0 0 0 0 0 0 0 PRO5.61
2022-05-25 10:06:56 20 18.40 0.100000 42.121764 -79.1864253 0 0 0 0 0 0 0 0 PRO5.61
2022-05-25 10:05:55 19 17.60 0.095000 42.121764 -79.1864253 0 0 0 0 0 0 0 0 PRO5.61
2022-05-25 10:04:54 20 17.60 0.100000 42.121764 -79.1864253 0 0 0 0 0 0 0 0 PRO5.61
2022-05-25 10:03:53 17 16.70 0.085000 42.121764 -79.1864253 0 0 0 0 0 0 0 0 PRO5.61
2022-05-25 10:02:52 15 17.30 0.075000 42.121764 -79.1864253 0 0 0 0 0 0 0 0 PRO5.61
2022-05-25 10:01:51 26 18.50 0.130000 42.121764 -79.1864253 0 0 0 0 0 0 0 0 PRO5.61
2022-05-25 10:00:49 17 17.10 0.085000 42.121764 -79.1864253 0 0 0 0 0 0 0 0 PRO5.61
2022-05-25 09:59:49 18 17.40 0.090000 42.121764 -79.1864253 0 0 0 0 0 0 0 0 PRO5.61
2022-05-25 09:58:47 15 17.50 0.075000 42.121764 -79.1864253 0 0 0 0 0 0 0 0 PRO5.61
2022-05-25 09:57:46 16 17.90 0.080000 42.121764 -79.1864253 0 0 0 0 0 0 0 0 PRO5.61
2022-05-25 09:56:45 14 18.30 0.070000 42.121764 -79.1864253 0 0 0 0 0 0 0 0 PRO5.61
2022-05-25 09:55:44 15 18.30 0.075000 42.121764 -79.1864253 0 0 0 0 0 0 0 0 PRO5.61
2022-05-25 09:54:43 15 18.30 0.075000 42.121764 -79.1864253 0 0 0 0 0 0 0 0 PRO5.61
2022-05-25 09:53:42 23 19.60 0.115000 42.121764 -79.1864253 0 0 0 0 0 0 0 0 PRO5.61
2022-05-25 09:52:41 23 19.00 0.115000 42.121764 -79.1864253 0 0 0 0 0 0 0 0 PRO5.61
2022-05-25 09:51:40 15 18.10 0.075000 42.121764 -79.1864253 0 0 0 0 0 0 0 0 PRO5.61
2022-05-25 09:50:39 19 18.00 0.095000 42.121764 -79.1864253 0 0 0 0 0 0 0 0 PRO5.61
2022-05-25 09:49:38 18 17.90 0.090000 42.121764 -79.1864253 0 0 0 0 0 0 0 0 PRO5.61
2022-05-25 09:48:37 20 17.10 0.100000 42.121764 -79.1864253 0 0 0 0 0 0 0 0 PRO5.61
2022-05-25 09:47:36 18 16.90 0.090000 42.121764 -79.1864253 0 0 0 0 0 0 0 0 PRO5.61
2022-05-25 09:46:35 16 17.00 0.080000 42.121764 -79.1864253 0 0 0 0 0 0 0 0 PRO5.61
2022-05-25 09:45:34 19 17.90 0.095000 42.121764 -79.1864253 0 0 0 0 0 0 0 0 PRO5.61
2022-05-25 09:44:33 25 18.30 0.125000 42.121764 -79.1864253 0 0 0 0 0 0 0 0 PRO5.61
2022-05-25 09:43:32 19 18.10 0.095000 42.121764 -79.1864253 0 0 0 0 0 0 0 0 PRO5.61
2022-05-25 09:42:31 16 17.90 0.080000 42.121764 -79.1864253 0 0 0 0 0 0 0 0 PRO5.61
2022-05-25 09:41:30 15 18.60 0.075000 42.121764 -79.1864253 0 0 0 0 0 0 0 0 PRO5.61
2022-05-25 09:40:29 15 18.60 0.075000 42.121764 -79.1864253 0 0 0 0 0 0 0 0 PRO5.61
2022-05-25 09:39:28 9 19.60 0.045000 42.121764 -79.1864253 0 0 0 0 0 0 0 0 PRO5.61
2022-05-25 09:38:27 17 20.50 0.085000 42.121764 -79.1864253 0 0 0 0 0 0 0 0 PRO5.61
2022-05-25 09:37:26 19 20.70 0.095000 42.121764 -79.1864253 0 0 0 0 0 0 0 0 PRO5.61
2022-05-25 09:36:25 24 20.80 0.120000 42.121764 -79.1864253 0 0 0 0 0 0 0 0 PRO5.61
2022-05-25 09:35:24 24 19.90 0.120000 42.121764 -79.1864253 0 0 0 0 0 0 0 0 PRO5.61
2022-05-25 09:34:23 22 19.20 0.110000 42.121764 -79.1864253 0 0 0 0 0 0 0 0 PRO5.61
2022-05-25 09:33:22 16 18.90 0.080000 42.121764 -79.1864253 0 0 0 0 0 0 0 0 PRO5.61
2022-05-25 09:32:21 23 19.10 0.115000 42.121764 -79.1864253 0 0 0 0 0 0 0 0 PRO5.61
2022-05-25 09:31:20 14 18.40 0.070000 42.121764 -79.1864253 0 0 0 0 0 0 0 0 PRO5.61
2022-05-25 09:30:19 26 19.10 0.130000 42.121764 -79.1864253 0 0 0 0 0 0 0 0 PRO5.61
2022-05-25 09:29:18 18 18.20 0.090000 42.121764 -79.1864253 0 0 0 0 0 0 0 0 PRO5.61
2022-05-25 09:28:17 24 17.70 0.120000 42.121764 -79.1864253 0 0 0 0 0 0 0 0 PRO5.61
2022-05-25 09:27:16 20 17.00 0.100000 42.121764 -79.1864253 0 0 0 0 0 0 0 0 PRO5.61
2022-05-25 09:26:13 16 17.40 0.080000 42.121764 -79.1864253 0 0 0 0 0 0 0 0 PRO5.61
2022-05-25 09:25:12 15 18.40 0.075000 42.121764 -79.1864253 0 0 0 0 0 0 0 0 PRO5.61
2022-05-25 09:24:11 18 18.20 0.090000 42.121764 -79.1864253 0 0 0 0 0 0 0 0 PRO5.61
2022-05-25 09:23:10 20 17.70 0.100000 42.121764 -79.1864253 0 0 0 0 0 0 0 0 PRO5.61
2022-05-25 09:22:09 21 17.30 0.105000 42.121764 -79.1864253 0 0 0 0 0 0 0 0 PRO5.61
2022-05-25 09:21:08 16 16.70 0.080000 42.121764 -79.1864253 0 0 0 0 0 0 0 0 PRO5.61
2022-05-25 09:20:07 17 16.60 0.085000 42.121764 -79.1864253 0 0 0 0 0 0 0 0 PRO5.61
2022-05-25 09:19:06 11 16.80 0.055000 42.121764 -79.1864253 0 0 0 0 0 0 0 0 PRO5.61
2022-05-25 09:18:05 17 18.10 0.085000 42.121764 -79.1864253 0 0 0 0 0 0 0 0 PRO5.61
2022-05-25 09:17:04 27 17.60 0.135000 42.121764 -79.1864253 0 0 0 0 0 0 0 0 PRO5.61
2022-05-25 09:16:03 21 17.20 0.105000 42.121764 -79.1864253 0 0 0 0 0 0 0 0 PRO5.61
2022-05-25 09:15:02 13 17.20 0.065000 42.121764 -79.1864253 0 0 0 0 0 0 0 0 PRO5.61
2022-05-25 09:14:01 13 17.80 0.065000 42.121764 -79.1864253 0 0 0 0 0 0 0 0 PRO5.61
2022-05-25 09:13:00 16 17.90 0.080000 42.121764 -79.1864253 0 0 0 0 0 0 0 0 PRO5.61
2022-05-25 09:12:00 14 17.80 0.070000 42.121764 -79.1864253 0 0 0 0 0 0 0 0 PRO5.61
2022-05-25 09:10:58 17 18.00 0.085000 42.121764 -79.1864253 0 0 0 0 0 0 0 0 PRO5.61
2022-05-25 09:09:57 19 17.70 0.095000 42.121764 -79.1864253 0 0 0 0 0 0 0 0 PRO5.61
2022-05-25 09:08:56 20 18.00 0.100000 42.121764 -79.1864253 0 0 0 0 0 0 0 0 PRO5.61
2022-05-25 09:07:55 13 17.70 0.065000 42.121764 -79.1864253 0 0 0 0 0 0 0 0 PRO5.61
2022-05-25 09:06:54 21 18.10 0.105000 42.121764 -79.1864253 0 0 0 0 0 0 0 0 PRO5.61
2022-05-25 09:05:53 24 17.60 0.120000 42.121764 -79.1864253 0 0 0 0 0 0 0 0 PRO5.61
2022-05-25 09:04:52 18 16.20 0.090000 42.121764 -79.1864253 0 0 0 0 0 0 0 0 PRO5.61
2022-05-25 09:03:51 15 16.30 0.075000 42.121764 -79.1864253 0 0 0 0 0 0 0 0 PRO5.61
2022-05-25 09:02:50 14 16.10 0.070000 42.121764 -79.1864253 0 0 0 0 0 0 0 0 PRO5.61
2022-05-25 09:01:49 16 16.70 0.080000 42.121764 -79.1864253 0 0 0 0 0 0 0 0 PRO5.61
2022-05-25 09:00:48 21 17.20 0.105000 42.121764 -79.1864253 0 0 0 0 0 0 0 0 PRO5.61
2022-05-25 08:59:47 18 16.90 0.090000 42.121764 -79.1864253 0 0 0 0 0 0 0 0 PRO5.61
2022-05-25 08:58:46 19 16.40 0.095000 42.121764 -79.1864253 0 0 0 0 0 0 0 0 PRO5.61
2022-05-25 08:57:45 16 16.20 0.080000 42.121764 -79.1864253 0 0 0 0 0 0 0 0 PRO5.61
2022-05-25 08:56:44 13 16.70 0.065000 42.121764 -79.1864253 0 0 0 0 0 0 0 0 PRO5.61
2022-05-25 08:55:43 14 17.50 0.070000 42.121764 -79.1864253 0 0 0 0 0 0 0 0 PRO5.61
2022-05-25 08:54:42 16 17.50 0.080000 42.121764 -79.1864253 0 0 0 0 0 0 0 0 PRO5.61
2022-05-25 08:53:41 11 18.40 0.055000 42.121764 -79.1864253 0 0 0 0 0 0 0 0 PRO5.61
2022-05-25 08:52:40 24 19.20 0.120000 42.121764 -79.1864253 0 0 0 0 0 0 0 0 PRO5.61
2022-05-25 08:51:39 19 19.00 0.095000 42.121764 -79.1864253 0 0 0 0 0 0 0 0 PRO5.61
2022-05-25 08:50:38 16 19.20 0.080000 42.121764 -79.1864253 0 0 0 0 0 0 0 0 PRO5.61
2022-05-25 08:49:37 13 19.50 0.065000 42.121764 -79.1864253 0 0 0 0 0 0 0 0 PRO5.61
2022-05-25 08:48:36 20 20.40 0.100000 42.121764 -79.1864253 0 0 0 0 0 0 0 0 PRO5.61
2022-05-25 08:47:35 22 20.40 0.110000 42.121764 -79.1864253 0 0 0 0 0 0 0 0 PRO5.61
2022-05-25 08:46:34 18 19.50 0.090000 42.121764 -79.1864253 0 0 0 0 0 0 0 0 PRO5.61
2022-05-25 08:45:33 16 19.20 0.080000 42.121764 -79.1864253 0 0 0 0 0 0 0 0 PRO5.61
2022-05-25 08:44:32 26 19.70 0.130000 42.121764 -79.1864253 0 0 0 0 0 0 0 0 PRO5.61
2022-05-25 08:43:31 21 18.80 0.105000 42.121764 -79.1864253 0 0 0 0 0 0 0 0 PRO5.61
2022-05-25 08:42:30 21 18.00 0.105000 42.121764 -79.1864253 0 0 0 0 0 0 0 0 PRO5.61
2022-05-25 08:41:29 19 17.80 0.095000 42.121764 -79.1864253 0 0 0 0 0 0 0 0 PRO5.61
2022-05-25 08:40:28 20 17.20 0.100000 42.121764 -79.1864253 0 0 0 0 0 0 0 0 PRO5.61
2022-05-25 08:39:27 22 16.60 0.110000 42.121764 -79.1864253 0 0 0 0 0 0 0 0 PRO5.61
2022-05-25 08:38:26 19 16.20 0.095000 42.121764 -79.1864253 0 0 0 0 0 0 0 0 PRO5.61
2022-05-25 08:37:26 14 16.60 0.070000 42.121764 -79.1864253 0 0 0 0 0 0 0 0 PRO5.61
2022-05-25 08:36:24 16 17.00 0.080000 42.121764 -79.1864253 0 0 0 0 0 0 0 0 PRO5.61
2022-05-25 08:35:23 22 17.20 0.110000 42.121764 -79.1864253 0 0 0 0 0 0 0 0 PRO5.61
2022-05-25 08:34:22 11 16.90 0.055000 42.121764 -79.1864253 0 0 0 0 0 0 0 0 PRO5.61
2022-05-25 08:33:21 16 17.10 0.080000 42.121764 -79.1864253 0 0 0 0 0 0 0 0 PRO5.61
2022-05-25 08:32:20 15 16.90 0.075000 42.121764 -79.1864253 0 0 0 0 0 0 0 0 PRO5.61
2022-05-25 08:31:19 17 17.70 0.085000 42.121764 -79.1864253 0 0 0 0 0 0 0 0 PRO5.61
2022-05-25 08:30:18 13 18.00 0.065000 42.121764 -79.1864253 0 0 0 0 0 0 0 0 PRO5.61
2022-05-25 08:29:17 22 18.10 0.110000 42.121764 -79.1864253 0 0 0 0 0 0 0 0 PRO5.61
2022-05-25 08:28:16 15 17.00 0.075000 42.121764 -79.1864253 0 0 0 0 0 0 0 0 PRO5.61
2022-05-25 08:27:15 20 17.30 0.100000 42.121764 -79.1864253 0 0 0 0 0 0 0 0 PRO5.61
2022-05-25 08:26:12 17 16.70 0.085000 42.121764 -79.1864253 0 0 0 0 0 0 0 0 PRO5.61
2022-05-25 08:25:11 19 17.00 0.095000 42.121764 -79.1864253 0 0 0 0 0 0 0 0 PRO5.61
2022-05-25 08:24:10 13 16.30 0.065000 42.121764 -79.1864253 0 0 0 0 0 0 0 0 PRO5.61
2022-05-25 08:23:09 18 16.60 0.090000 42.121764 -79.1864253 0 0 0 0 0 0 0 0 PRO5.61
2022-05-25 08:22:08 23 16.40 0.115000 42.121764 -79.1864253 0 0 0 0 0 0 0 0 PRO5.61
2022-05-25 08:21:07 18 15.50 0.090000 42.121764 -79.1864253 0 0 0 0 0 0 0 0 PRO5.61
2022-05-25 08:20:06 17 15.10 0.085000 42.121764 -79.1864253 0 0 0 0 0 0 0 0 PRO5.61
2022-05-25 08:19:05 13 15.70 0.065000 42.121764 -79.1864253 0 0 0 0 0 0 0 0 PRO5.61
2022-05-25 08:18:04 15 16.50 0.075000 42.121764 -79.1864253 0 0 0 0 0 0 0 0 PRO5.61
2022-05-25 08:17:03 13 16.80 0.065000 42.121764 -79.1864253 0 0 0 0 0 0 0 0 PRO5.61
2022-05-25 08:16:02 20 16.90 0.100000 42.121764 -79.1864253 0 0 0 0 0 0 0 0 PRO5.61
2022-05-25 08:15:01 13 16.20 0.065000 42.121764 -79.1864253 0 0 0 0 0 0 0 0 PRO5.61
2022-05-25 08:14:00 16 16.60 0.080000 42.121764 -79.1864253 0 0 0 0 0 0 0 0 PRO5.61
2022-05-25 08:12:59 16 16.80 0.080000 42.121764 -79.1864253 0 0 0 0 0 0 0 0 PRO5.61
2022-05-25 08:11:58 17 16.60 0.085000 42.121764 -79.1864253 0 0 0 0 0 0 0 0 PRO5.61
2022-05-25 08:10:57 14 16.30 0.070000 42.121764 -79.1864253 0 0 0 0 0 0 0 0 PRO5.61
2022-05-25 08:09:56 26 16.70 0.130000 42.121764 -79.1864253 0 0 0 0 0 0 0 0 PRO5.61
2022-05-25 08:08:55 19 15.60 0.095000 42.121764 -79.1864253 0 0 0 0 0 0 0 0 PRO5.61
2022-05-25 08:07:54 20 15.60 0.100000 42.121764 -79.1864253 0 0 0 0 0 0 0 0 PRO5.61
2022-05-25 08:06:53 8 15.70 0.040000 42.121764 -79.1864253 0 0 0 0 0 0 0 0 PRO5.61
2022-05-25 08:05:52 16 16.00 0.080000 42.121764 -79.1864253 0 0 0 0 0 0 0 0 PRO5.61
2022-05-25 08:04:51 17 16.90 0.085000 42.121764 -79.1864253 0 0 0 0 0 0 0 0 PRO5.61
2022-05-25 08:03:50 20 16.90 0.100000 42.121764 -79.1864253 0 0 0 0 0 0 0 0 PRO5.61
2022-05-25 08:02:49 10 16.60 0.050000 42.121764 -79.1864253 0 0 0 0 0 0 0 0 PRO5.61
2022-05-25 08:01:49 13 17.30 0.065000 42.121764 -79.1864253 0 0 0 0 0 0 0 0 PRO5.61
2022-05-25 08:00:47 19 16.80 0.095000 42.121764 -79.1864253 0 0 0 0 0 0 0 0 PRO5.61
2022-05-25 07:59:46 17 17.00 0.085000 42.121764 -79.1864253 0 0 0 0 0 0 0 0 PRO5.61
2022-05-25 07:58:45 19 17.30 0.095000 42.121764 -79.1864253 0 0 0 0 0 0 0 0 PRO5.61
2022-05-25 07:57:44 16 17.00 0.080000 42.121764 -79.1864253 0 0 0 0 0 0 0 0 PRO5.61
2022-05-25 07:56:43 12 17.80 0.060000 42.121764 -79.1864253 0 0 0 0 0 0 0 0 PRO5.61
2022-05-25 07:55:42 23 17.90 0.115000 42.121764 -79.1864253 0 0 0 0 0 0 0 0 PRO5.61
2022-05-25 07:54:41 17 17.00 0.085000 42.121764 -79.1864253 0 0 0 0 0 0 0 0 PRO5.61
2022-05-25 07:53:40 17 17.10 0.085000 42.121764 -79.1864253 0 0 0 0 0 0 0 0 PRO5.61
2022-05-25 07:52:39 15 16.90 0.075000 42.121764 -79.1864253 0 0 0 0 0 0 0 0 PRO5.61
2022-05-25 07:51:38 10 17.40 0.050000 42.121764 -79.1864253 0 0 0 0 0 0 0 0 PRO5.61
2022-05-25 07:50:37 20 18.10 0.100000 42.121764 -79.1864253 0 0 0 0 0 0 0 0 PRO5.61
2022-05-25 07:49:36 24 17.60 0.120000 42.121764 -79.1864253 0 0 0 0 0 0 0 0 PRO5.61
2022-05-25 07:48:35 16 16.80 0.080000 42.121764 -79.1864253 0 0 0 0 0 0 0 0 PRO5.61
2022-05-25 07:47:34 25 16.80 0.125000 42.121764 -79.1864253 0 0 0 0 0 0 0 0 PRO5.61
2022-05-25 07:46:33 10 16.20 0.050000 42.121764 -79.1864253 0 0 0 0 0 0 0 0 PRO5.61
2022-05-25 07:45:32 18 16.80 0.090000 42.121764 -79.1864253 0 0 0 0 0 0 0 0 PRO5.61
2022-05-25 07:44:31 18 16.40 0.090000 42.121764 -79.1864253 0 0 0 0 0 0 0 0 PRO5.61
2022-05-25 07:43:30 14 16.60 0.070000 42.121764 -79.1864253 0 0 0 0 0 0 0 0 PRO5.61
2022-05-25 07:42:29 24 17.40 0.120000 42.121764 -79.1864253 0 0 0 0 0 0 0 0 PRO5.61
2022-05-25 07:41:28 14 16.30 0.070000 42.121764 -79.1864253 0 0 0 0 0 0 0 0 PRO5.61
2022-05-25 07:40:27 19 16.70 0.095000 42.121764 -79.1864253 0 0 0 0 0 0 0 0 PRO5.61
2022-05-25 07:39:26 13 16.20 0.065000 42.121764 -79.1864253 0 0 0 0 0 0 0 0 PRO5.61
2022-05-25 07:38:25 16 17.20 0.080000 42.121764 -79.1864253 0 0 0 0 0 0 0 0 PRO5.61
2022-05-25 07:37:22 17 17.20 0.085000 42.121764 -79.1864253 0 0 0 0 0 0 0 0 PRO5.61
2022-05-25 07:35:59 18 16.70 0.090000 42.121764 -79.1864253 0 0 0 0 0 0 0 0 PRO5.61
2022-05-25 07:34:36 12 17.00 0.060000 42.121764 -79.1864253 0 0 0 0 0 0 0 0 PRO5.61
2022-05-25 07:33:13 25 17.60 0.125000 42.121764 -79.1864253 0 0 0 0 0 0 0 0 PRO5.61
2022-05-25 07:31:50 18 16.90 0.090000 42.121764 -79.1864253 0 0 0 0 0 0 0 0 PRO5.61
2022-05-25 07:30:27 13 16.60 0.065000 42.121764 -79.1864253 0 0 0 0 0 0 0 0 PRO5.61
2022-05-25 07:29:04 20 17.50 0.100000 42.121764 -79.1864253 0 0 0 0 0 0 0 0 PRO5.61
2022-05-25 07:27:41 12 17.10 0.060000 42.121764 -79.1864253 0 0 0 0 0 0 0 0 PRO5.61
2022-05-25 07:26:18 21 17.30 0.105000 42.121764 -79.1864253 0 0 0 0 0 0 0 0 PRO5.61
2022-05-25 07:24:55 15 16.60 0.075000 42.121764 -79.1864253 0 0 0 0 0 0 0 0 PRO5.61
2022-05-25 07:23:32 12 17.30 0.060000 42.121764 -79.1864253 0 0 0 0 0 0 0 0 PRO5.61
2022-05-25 07:22:09 19 18.20 0.095000 42.121764 -79.1864253 0 0 0 0 0 0 0 0 PRO5.61
2022-05-25 07:21:08 17 18.20 0.085000 42.121764 -79.1864253 0 0 0 0 0 0 0 0 PRO5.61
2022-05-25 07:20:07 20 18.00 0.100000 42.121764 -79.1864253 0 0 0 0 0 0 0 0 PRO5.61
2022-05-25 07:19:07 14 17.90 0.070000 42.121764 -79.1864253 0 0 0 0 0 0 0 0 PRO5.61
2022-05-25 07:18:05 20 18.20 0.100000 42.121764 -79.1864253 0 0 0 0 0 0 0 0 PRO5.61
2022-05-25 07:17:04 15 18.00 0.075000 42.121764 -79.1864253 0 0 0 0 0 0 0 0 PRO5.61
2022-05-25 07:16:03 14 18.00 0.070000 42.121764 -79.1864253 0 0 0 0 0 0 0 0 PRO5.61